Terminal Aerodrome Forecast
Issued by NWS

Home | Current Version | Previous Version | Graphics & Text | Print | Product List | Glossary On
Versions: 1 2 3 4 5 6 7 8 9 10 11 12 13 14 15 16 17 18 19 20 21 22 23 24 25 26 27 28 29
153
FTUS43 KABR 051601 AAE
TAFMBG
TAF AMD
KMBG 051601Z 0516/0612 35006KT P6SM OVC090
     FM051630 02012KT 4SM -SN OVC040
     FM051700 34018G25KT 6SM -SN OVC030
     FM051900 31025G35KT 2SM -SN BLSN OVC030
     FM052200 30028G39KT 6SM BLSN OVC020
     FM060000 30027G38KT P6SM BKN025
     FM060600 30022G31KT P6SM BKN035
     FM061000 30021G30KT P6SM BKN040=

USA.gov is the U.S. government's official web portal to all federal, state and local government web resources and services.